sensor_id;sensor_type;location;lat;lon;timestamp;temperature;humidity
51029;DHT22;37054;52.054;8.600;2023-03-23T00:00:04;17.00;62.30
51029;DHT22;37054;52.054;8.600;2023-03-23T00:02:30;17.00;62.20
51029;DHT22;37054;52.054;8.600;2023-03-23T00:05:07;17.00;62.20
51029;DHT22;37054;52.054;8.600;2023-03-23T00:07:33;16.90;62.40
51029;DHT22;37054;52.054;8.600;2023-03-23T00:09:59;16.90;62.50
51029;DHT22;37054;52.054;8.600;2023-03-23T00:12:28;16.80;62.70
51029;DHT22;37054;52.054;8.600;2023-03-23T00:15:00;16.80;62.70
51029;DHT22;37054;52.054;8.600;2023-03-23T00:17:26;16.80;62.80
51029;DHT22;37054;52.054;8.600;2023-03-23T00:19:52;16.70;62.70
51029;DHT22;37054;52.054;8.600;2023-03-23T00:22:18;16.70;62.90
51029;DHT22;37054;52.054;8.600;2023-03-23T00:24:46;16.70;63.10
51029;DHT22;37054;52.054;8.600;2023-03-23T00:27:13;16.70;63.20
51029;DHT22;37054;52.054;8.600;2023-03-23T00:29:40;16.70;63.40
51029;DHT22;37054;52.054;8.600;2023-03-23T00:32:06;16.70;63.70
51029;DHT22;37054;52.054;8.600;2023-03-23T00:34:32;16.60;63.80
51029;DHT22;37054;52.054;8.600;2023-03-23T00:36:59;16.60;64.10
51029;DHT22;37054;52.054;8.600;2023-03-23T00:39:26;16.60;64.10
51029;DHT22;37054;52.054;8.600;2023-03-23T00:41:51;16.60;64.40
51029;DHT22;37054;52.054;8.600;2023-03-23T00:44:18;16.60;64.40
51029;DHT22;37054;52.054;8.600;2023-03-23T00:46:44;16.60;64.30
51029;DHT22;37054;52.054;8.600;2023-03-23T00:49:14;16.60;64.50
51029;DHT22;37054;52.054;8.600;2023-03-23T00:51:40;16.60;64.50
51029;DHT22;37054;52.054;8.600;2023-03-23T00:54:06;16.50;64.60
51029;DHT22;37054;52.054;8.600;2023-03-23T00:56:33;16.50;64.60
51029;DHT22;37054;52.054;8.600;2023-03-23T00:58:58;16.40;64.60
51029;DHT22;37054;52.054;8.600;2023-03-23T01:01:24;16.40;64.70
51029;DHT22;37054;52.054;8.600;2023-03-23T01:03:50;16.40;64.90
51029;DHT22;37054;52.054;8.600;2023-03-23T01:06:15;16.40;65.10
51029;DHT22;37054;52.054;8.600;2023-03-23T01:08:41;16.50;65.10
51029;DHT22;37054;52.054;8.600;2023-03-23T01:11:14;16.50;65.00
51029;DHT22;37054;52.054;8.600;2023-03-23T01:13:40;16.50;65.10
51029;DHT22;37054;52.054;8.600;2023-03-23T01:16:07;16.60;64.90
51029;DHT22;37054;52.054;8.600;2023-03-23T01:18:32;16.50;65.00
51029;DHT22;37054;52.054;8.600;2023-03-23T01:21:03;16.50;64.90
51029;DHT22;37054;52.054;8.600;2023-03-23T01:23:28;16.60;64.90
51029;DHT22;37054;52.054;8.600;2023-03-23T01:25:54;16.50;65.10
51029;DHT22;37054;52.054;8.600;2023-03-23T01:28:23;16.70;65.00
51029;DHT22;37054;52.054;8.600;2023-03-23T01:30:53;16.70;64.80
51029;DHT22;37054;52.054;8.600;2023-03-23T01:33:18;16.80;64.80
51029;DHT22;37054;52.054;8.600;2023-03-23T01:35:44;16.80;64.70
51029;DHT22;37054;52.054;8.600;2023-03-23T01:38:12;16.80;64.60
51029;DHT22;37054;52.054;8.600;2023-03-23T01:40:37;16.70;64.20
51029;DHT22;37054;52.054;8.600;2023-03-23T01:43:07;16.70;64.40
51029;DHT22;37054;52.054;8.600;2023-03-23T01:45:36;16.80;64.40
51029;DHT22;37054;52.054;8.600;2023-03-23T01:48:03;16.70;64.40
51029;DHT22;37054;52.054;8.600;2023-03-23T01:50:31;16.70;64.50
51029;DHT22;37054;52.054;8.600;2023-03-23T01:53:00;16.70;64.50
51029;DHT22;37054;52.054;8.600;2023-03-23T01:55:26;16.70;64.40
51029;DHT22;37054;52.054;8.600;2023-03-23T01:57:53;16.70;64.60
51029;DHT22;37054;52.054;8.600;2023-03-23T02:00:19;16.60;64.50
51029;DHT22;37054;52.054;8.600;2023-03-23T02:02:47;16.60;64.70
51029;DHT22;37054;52.054;8.600;2023-03-23T02:05:14;16.60;64.70
51029;DHT22;37054;52.054;8.600;2023-03-23T02:07:45;16.60;64.70
51029;DHT22;37054;52.054;8.600;2023-03-23T02:10:11;16.70;64.70
51029;DHT22;37054;52.054;8.600;2023-03-23T02:12:37;16.60;64.70
51029;DHT22;37054;52.054;8.600;2023-03-23T02:15:02;16.70;64.60
51029;DHT22;37054;52.054;8.600;2023-03-23T02:17:38;16.80;64.50
51029;DHT22;37054;52.054;8.600;2023-03-23T02:35:47;17.00;63.80
51029;DHT22;37054;52.054;8.600;2023-03-23T02:38:16;17.00;64.10
51029;DHT22;37054;52.054;8.600;2023-03-23T02:40:44;17.10;64.00
51029;DHT22;37054;52.054;8.600;2023-03-23T02:43:15;17.10;63.90
51029;DHT22;37054;52.054;8.600;2023-03-23T02:45:42;17.00;64.00
51029;DHT22;37054;52.054;8.600;2023-03-23T02:48:08;16.90;63.90
51029;DHT22;37054;52.054;8.600;2023-03-23T02:50:35;16.80;63.90
51029;DHT22;37054;52.054;8.600;2023-03-23T02:53:02;16.70;64.10
51029;DHT22;37054;52.054;8.600;2023-03-23T02:55:28;16.70;64.00
51029;DHT22;37054;52.054;8.600;2023-03-23T02:57:55;16.60;64.20
51029;DHT22;37054;52.054;8.600;2023-03-23T03:00:23;16.70;64.50
51029;DHT22;37054;52.054;8.600;2023-03-23T03:02:52;16.70;64.30
51029;DHT22;37054;52.054;8.600;2023-03-23T03:12:47;16.70;64.30
51029;DHT22;37054;52.054;8.600;2023-03-23T03:15:33;16.70;63.90
51029;DHT22;37054;52.054;8.600;2023-03-23T03:20:25;16.70;63.70
51029;DHT22;37054;52.054;8.600;2023-03-23T03:22:51;16.70;63.80
51029;DHT22;37054;52.054;8.600;2023-03-23T03:25:18;16.70;63.40
51029;DHT22;37054;52.054;8.600;2023-03-23T03:27:45;16.80;63.80
51029;DHT22;37054;52.054;8.600;2023-03-23T03:30:15;16.80;63.40
51029;DHT22;37054;52.054;8.600;2023-03-23T03:32:46;16.80;63.40
51029;DHT22;37054;52.054;8.600;2023-03-23T03:35:14;16.80;63.20
51029;DHT22;37054;52.054;8.600;2023-03-23T03:37:40;16.80;63.20
51029;DHT22;37054;52.054;8.600;2023-03-23T03:40:08;16.80;62.90
51029;DHT22;37054;52.054;8.600;2023-03-23T03:42:40;16.80;63.20
51029;DHT22;37054;52.054;8.600;2023-03-23T03:45:07;16.80;62.90
51029;DHT22;37054;52.054;8.600;2023-03-23T03:47:33;16.60;63.20
51029;DHT22;37054;52.054;8.600;2023-03-23T03:49:59;16.50;63.40
51029;DHT22;37054;52.054;8.600;2023-03-23T03:52:24;16.50;63.50
51029;DHT22;37054;52.054;8.600;2023-03-23T03:54:50;16.50;63.50
51029;DHT22;37054;52.054;8.600;2023-03-23T03:57:16;16.50;63.70
51029;DHT22;37054;52.054;8.600;2023-03-23T03:59:43;16.50;63.40
51029;DHT22;37054;52.054;8.600;2023-03-23T04:02:09;16.40;63.60
51029;DHT22;37054;52.054;8.600;2023-03-23T04:04:34;16.50;63.80
51029;DHT22;37054;52.054;8.600;2023-03-23T04:07:00;16.40;63.70
51029;DHT22;37054;52.054;8.600;2023-03-23T04:09:28;16.50;63.60
51029;DHT22;37054;52.054;8.600;2023-03-23T04:11:53;16.50;63.70
51029;DHT22;37054;52.054;8.600;2023-03-23T04:14:19;16.50;63.50
51029;DHT22;37054;52.054;8.600;2023-03-23T04:16:45;16.60;63.60
51029;DHT22;37054;52.054;8.600;2023-03-23T04:19:10;16.60;63.60
51029;DHT22;37054;52.054;8.600;2023-03-23T04:21:37;16.50;63.60
51029;DHT22;37054;52.054;8.600;2023-03-23T04:24:03;16.70;63.70
51029;DHT22;37054;52.054;8.600;2023-03-23T04:26:31;16.70;63.60
51029;DHT22;37054;52.054;8.600;2023-03-23T04:28:57;16.80;63.70
51029;DHT22;37054;52.054;8.600;2023-03-23T04:31:25;16.60;63.30
51029;DHT22;37054;52.054;8.600;2023-03-23T04:33:51;16.70;63.20
51029;DHT22;37054;52.054;8.600;2023-03-23T04:36:20;16.70;63.30
51029;DHT22;37054;52.054;8.600;2023-03-23T04:38:47;16.80;63.10
51029;DHT22;37054;52.054;8.600;2023-03-23T04:41:13;16.80;63.20
51029;DHT22;37054;52.054;8.600;2023-03-23T04:43:39;16.80;63.00
51029;DHT22;37054;52.054;8.600;2023-03-23T04:46:07;16.90;63.20
51029;DHT22;37054;52.054;8.600;2023-03-23T04:48:35;16.90;62.90
51029;DHT22;37054;52.054;8.600;2023-03-23T04:51:03;16.90;63.20
51029;DHT22;37054;52.054;8.600;2023-03-23T04:53:30;16.80;63.10
51029;DHT22;37054;52.054;8.600;2023-03-23T04:55:55;16.90;63.20
51029;DHT22;37054;52.054;8.600;2023-03-23T04:58:21;16.80;62.90
51029;DHT22;37054;52.054;8.600;2023-03-23T05:00:48;16.90;62.80
51029;DHT22;37054;52.054;8.600;2023-03-23T05:03:17;17.00;63.00
51029;DHT22;37054;52.054;8.600;2023-03-23T05:05:43;17.10;62.90
51029;DHT22;37054;52.054;8.600;2023-03-23T05:08:12;17.10;63.00
51029;DHT22;37054;52.054;8.600;2023-03-23T05:10:38;17.20;62.80
51029;DHT22;37054;52.054;8.600;2023-03-23T05:13:04;17.20;62.80
51029;DHT22;37054;52.054;8.600;2023-03-23T05:15:30;17.20;62.80
51029;DHT22;37054;52.054;8.600;2023-03-23T05:17:56;17.20;62.60
51029;DHT22;37054;52.054;8.600;2023-03-23T05:20:21;17.20;62.50
51029;DHT22;37054;52.054;8.600;2023-03-23T05:22:48;17.20;62.50
51029;DHT22;37054;52.054;8.600;2023-03-23T05:25:15;17.20;62.20
51029;DHT22;37054;52.054;8.600;2023-03-23T05:27:40;17.20;62.20
51029;DHT22;37054;52.054;8.600;2023-03-23T05:30:14;17.30;62.10
51029;DHT22;37054;52.054;8.600;2023-03-23T05:32:42;17.30;62.10
51029;DHT22;37054;52.054;8.600;2023-03-23T05:35:07;17.30;61.90
51029;DHT22;37054;52.054;8.600;2023-03-23T05:37:33;17.40;61.90
51029;DHT22;37054;52.054;8.600;2023-03-23T05:39:59;17.30;61.60
51029;DHT22;37054;52.054;8.600;2023-03-23T05:42:30;17.40;61.50
51029;DHT22;37054;52.054;8.600;2023-03-23T05:44:56;17.30;61.20
51029;DHT22;37054;52.054;8.600;2023-03-23T05:47:21;17.30;61.00
51029;DHT22;37054;52.054;8.600;2023-03-23T05:49:47;17.20;60.70
51029;DHT22;37054;52.054;8.600;2023-03-23T05:52:13;17.20;60.70
51029;DHT22;37054;52.054;8.600;2023-03-23T05:54:39;17.20;60.80
51029;DHT22;37054;52.054;8.600;2023-03-23T05:57:06;17.30;61.00
51029;DHT22;37054;52.054;8.600;2023-03-23T05:59:34;17.30;61.10
51029;DHT22;37054;52.054;8.600;2023-03-23T06:02:00;17.30;60.70
51029;DHT22;37054;52.054;8.600;2023-03-23T06:04:25;17.20;60.90
51029;DHT22;37054;52.054;8.600;2023-03-23T06:06:52;17.20;60.80
51029;DHT22;37054;52.054;8.600;2023-03-23T06:09:18;17.30;60.80
51029;DHT22;37054;52.054;8.600;2023-03-23T06:11:44;17.30;60.70
51029;DHT22;37054;52.054;8.600;2023-03-23T06:14:09;17.40;60.70
51029;DHT22;37054;52.054;8.600;2023-03-23T06:16:35;17.30;60.90
51029;DHT22;37054;52.054;8.600;2023-03-23T06:19:00;17.40;60.90
51029;DHT22;37054;52.054;8.600;2023-03-23T06:21:30;17.40;60.70
51029;DHT22;37054;52.054;8.600;2023-03-23T06:23:55;17.50;60.70
51029;DHT22;37054;52.054;8.600;2023-03-23T06:26:22;17.60;60.50
51029;DHT22;37054;52.054;8.600;2023-03-23T06:28:49;17.70;60.40
51029;DHT22;37054;52.054;8.600;2023-03-23T06:31:14;17.60;60.00
51029;DHT22;37054;52.054;8.600;2023-03-23T06:33:42;17.70;60.00
51029;DHT22;37054;52.054;8.600;2023-03-23T06:36:08;17.70;60.10
51029;DHT22;37054;52.054;8.600;2023-03-23T06:38:37;17.70;59.80
51029;DHT22;37054;52.054;8.600;2023-03-23T06:41:02;17.80;60.30
51029;DHT22;37054;52.054;8.600;2023-03-23T06:43:28;17.70;60.00
51029;DHT22;37054;52.054;8.600;2023-03-23T06:45:54;17.80;59.70
51029;DHT22;37054;52.054;8.600;2023-03-23T06:48:19;17.80;60.00
51029;DHT22;37054;52.054;8.600;2023-03-23T06:50:45;17.90;60.00
51029;DHT22;37054;52.054;8.600;2023-03-23T06:53:11;18.10;60.50
51029;DHT22;37054;52.054;8.600;2023-03-23T06:55:38;18.10;59.70
51029;DHT22;37054;52.054;8.600;2023-03-23T06:58:04;18.20;59.90
51029;DHT22;37054;52.054;8.600;2023-03-23T07:00:31;18.20;59.40
51029;DHT22;37054;52.054;8.600;2023-03-23T07:02:56;18.30;59.10
51029;DHT22;37054;52.054;8.600;2023-03-23T07:05:22;18.40;58.60
51029;DHT22;37054;52.054;8.600;2023-03-23T07:07:48;18.40;58.50
51029;DHT22;37054;52.054;8.600;2023-03-23T07:10:15;18.50;58.20
51029;DHT22;37054;52.054;8.600;2023-03-23T07:12:40;18.60;58.40
51029;DHT22;37054;52.054;8.600;2023-03-23T07:15:07;18.70;57.70
51029;DHT22;37054;52.054;8.600;2023-03-23T07:17:35;18.70;57.80
51029;DHT22;37054;52.054;8.600;2023-03-23T07:20:01;18.90;57.70
51029;DHT22;37054;52.054;8.600;2023-03-23T07:22:27;19.00;57.60
51029;DHT22;37054;52.054;8.600;2023-03-23T07:24:54;19.00;57.00
51029;DHT22;37054;52.054;8.600;2023-03-23T07:27:20;19.10;57.00
51029;DHT22;37054;52.054;8.600;2023-03-23T07:29:46;19.20;57.70
51029;DHT22;37054;52.054;8.600;2023-03-23T07:32:11;19.20;56.60
51029;DHT22;37054;52.054;8.600;2023-03-23T07:34:39;19.40;56.90
51029;DHT22;37054;52.054;8.600;2023-03-23T07:37:05;19.60;57.30
51029;DHT22;37054;52.054;8.600;2023-03-23T07:39:31;20.10;57.20
51029;DHT22;37054;52.054;8.600;2023-03-23T07:42:01;20.30;55.50
51029;DHT22;37054;52.054;8.600;2023-03-23T07:44:27;20.50;54.60
51029;DHT22;37054;52.054;8.600;2023-03-23T07:46:52;20.70;54.10
51029;DHT22;37054;52.054;8.600;2023-03-23T07:49:18;20.80;54.20
51029;DHT22;37054;52.054;8.600;2023-03-23T07:51:44;20.90;53.20
51029;DHT22;37054;52.054;8.600;2023-03-23T07:54:09;21.00;52.00
51029;DHT22;37054;52.054;8.600;2023-03-23T07:56:36;21.10;51.20
51029;DHT22;37054;52.054;8.600;2023-03-23T07:59:05;21.20;50.90
51029;DHT22;37054;52.054;8.600;2023-03-23T08:01:30;21.30;50.50
51029;DHT22;37054;52.054;8.600;2023-03-23T08:03:57;21.30;51.00
51029;DHT22;37054;52.054;8.600;2023-03-23T08:06:26;21.30;51.00
51029;DHT22;37054;52.054;8.600;2023-03-23T08:08:51;21.20;51.00
51029;DHT22;37054;52.054;8.600;2023-03-23T08:11:18;21.20;51.20
51029;DHT22;37054;52.054;8.600;2023-03-23T08:13:44;21.00;50.00
51029;DHT22;37054;52.054;8.600;2023-03-23T08:16:09;20.80;50.00
51029;DHT22;37054;52.054;8.600;2023-03-23T08:18:35;20.70;49.60
51029;DHT22;37054;52.054;8.600;2023-03-23T08:21:03;20.70;51.00
51029;DHT22;37054;52.054;8.600;2023-03-23T08:23:30;20.70;51.20
51029;DHT22;37054;52.054;8.600;2023-03-23T08:25:56;20.60;50.90
51029;DHT22;37054;52.054;8.600;2023-03-23T08:28:21;20.60;51.10
51029;DHT22;37054;52.054;8.600;2023-03-23T08:30:47;20.50;50.40
51029;DHT22;37054;52.054;8.600;2023-03-23T08:33:13;20.30;50.20
51029;DHT22;37054;52.054;8.600;2023-03-23T08:35:39;20.30;50.90
51029;DHT22;37054;52.054;8.600;2023-03-23T08:38:05;20.40;50.80
51029;DHT22;37054;52.054;8.600;2023-03-23T08:40:31;20.40;50.20
51029;DHT22;37054;52.054;8.600;2023-03-23T08:42:57;20.40;49.80
51029;DHT22;37054;52.054;8.600;2023-03-23T08:45:24;20.50;49.40
51029;DHT22;37054;52.054;8.600;2023-03-23T08:47:50;20.60;48.90
51029;DHT22;37054;52.054;8.600;2023-03-23T08:50:19;20.60;48.80
51029;DHT22;37054;52.054;8.600;2023-03-23T08:52:44;20.70;48.80
51029;DHT22;37054;52.054;8.600;2023-03-23T08:55:11;20.70;48.80
51029;DHT22;37054;52.054;8.600;2023-03-23T08:57:37;20.80;49.00
51029;DHT22;37054;52.054;8.600;2023-03-23T09:00:03;20.80;48.60
51029;DHT22;37054;52.054;8.600;2023-03-23T09:02:39;20.90;49.00
51029;DHT22;37054;52.054;8.600;2023-03-23T09:05:05;20.90;47.50
51029;DHT22;37054;52.054;8.600;2023-03-23T09:07:44;20.80;47.50
51029;DHT22;37054;52.054;8.600;2023-03-23T09:10:11;21.00;47.30
51029;DHT22;37054;52.054;8.600;2023-03-23T09:12:37;21.00;47.50
51029;DHT22;37054;52.054;8.600;2023-03-23T09:15:03;21.10;47.10
51029;DHT22;37054;52.054;8.600;2023-03-23T09:17:34;21.20;47.20
51029;DHT22;37054;52.054;8.600;2023-03-23T09:20:00;21.10;46.70
51029;DHT22;37054;52.054;8.600;2023-03-23T09:22:26;21.30;46.40
51029;DHT22;37054;52.054;8.600;2023-03-23T09:24:51;21.30;45.70
51029;DHT22;37054;52.054;8.600;2023-03-23T09:27:18;21.40;46.20
51029;DHT22;37054;52.054;8.600;2023-03-23T09:29:45;21.60;45.60
51029;DHT22;37054;52.054;8.600;2023-03-23T09:32:14;21.70;45.00
51029;DHT22;37054;52.054;8.600;2023-03-23T09:34:43;21.80;44.80
51029;DHT22;37054;52.054;8.600;2023-03-23T09:37:08;21.90;44.60
51029;DHT22;37054;52.054;8.600;2023-03-23T09:39:42;22.10;44.70
51029;DHT22;37054;52.054;8.600;2023-03-23T09:42:19;22.20;43.80
51029;DHT22;37054;52.054;8.600;2023-03-23T09:47:36;21.90;42.70
51029;DHT22;37054;52.054;8.600;2023-03-23T09:50:09;22.10;43.10
51029;DHT22;37054;52.054;8.600;2023-03-23T09:55:01;22.10;42.40
51029;DHT22;37054;52.054;8.600;2023-03-23T10:00:11;22.00;42.40
51029;DHT22;37054;52.054;8.600;2023-03-23T10:05:36;22.00;42.80
51029;DHT22;37054;52.054;8.600;2023-03-23T10:08:08;21.90;42.40
51029;DHT22;37054;52.054;8.600;2023-03-23T10:10:36;21.90;42.40
51029;DHT22;37054;52.054;8.600;2023-03-23T10:13:07;22.00;42.50
51029;DHT22;37054;52.054;8.600;2023-03-23T10:15:38;22.20;42.50
51029;DHT22;37054;52.054;8.600;2023-03-23T10:18:17;22.40;42.50
51029;DHT22;37054;52.054;8.600;2023-03-23T10:25:47;23.60;41.20
51029;DHT22;37054;52.054;8.600;2023-03-23T10:28:16;24.10;40.60
51029;DHT22;37054;52.054;8.600;2023-03-23T10:30:44;24.50;39.50
51029;DHT22;37054;52.054;8.600;2023-03-23T10:33:14;25.20;39.00
51029;DHT22;37054;52.054;8.600;2023-03-23T10:35:44;25.50;37.10
51029;DHT22;37054;52.054;8.600;2023-03-23T10:38:17;25.50;35.80
51029;DHT22;37054;52.054;8.600;2023-03-23T10:40:46;25.60;35.50
51029;DHT22;37054;52.054;8.600;2023-03-23T10:43:13;25.80;36.50
51029;DHT22;37054;52.054;8.600;2023-03-23T10:45:39;25.80;35.40
51029;DHT22;37054;52.054;8.600;2023-03-23T10:48:09;26.00;35.50
51029;DHT22;37054;52.054;8.600;2023-03-23T10:50:37;26.00;34.40
51029;DHT22;37054;52.054;8.600;2023-03-23T10:53:07;25.90;34.50
51029;DHT22;37054;52.054;8.600;2023-03-23T10:55:39;26.00;35.10
51029;DHT22;37054;52.054;8.600;2023-03-23T10:58:12;26.10;35.00
51029;DHT22;37054;52.054;8.600;2023-03-23T11:00:45;26.20;35.00
51029;DHT22;37054;52.054;8.600;2023-03-23T11:05:42;24.70;43.30
51029;DHT22;37054;52.054;8.600;2023-03-23T11:08:12;23.50;48.00
51029;DHT22;37054;52.054;8.600;2023-03-23T11:10:40;22.60;50.90
51029;DHT22;37054;52.054;8.600;2023-03-23T11:13:10;21.80;52.50
51029;DHT22;37054;52.054;8.600;2023-03-23T11:15:39;21.30;54.00
51029;DHT22;37054;52.054;8.600;2023-03-23T11:18:05;20.80;55.10
51029;DHT22;37054;52.054;8.600;2023-03-23T11:20:43;20.30;55.70
51029;DHT22;37054;52.054;8.600;2023-03-23T11:23:10;19.80;56.20
51029;DHT22;37054;52.054;8.600;2023-03-23T11:25:54;19.30;57.10
51029;DHT22;37054;52.054;8.600;2023-03-23T11:28:20;19.00;58.00
51029;DHT22;37054;52.054;8.600;2023-03-23T11:30:46;18.70;58.50
51029;DHT22;37054;52.054;8.600;2023-03-23T11:33:11;18.40;59.30
51029;DHT22;37054;52.054;8.600;2023-03-23T11:35:42;18.20;59.60
51029;DHT22;37054;52.054;8.600;2023-03-23T11:38:11;18.00;60.00
51029;DHT22;37054;52.054;8.600;2023-03-23T11:40:46;17.90;61.10
51029;DHT22;37054;52.054;8.600;2023-03-23T11:43:13;17.80;61.80
51029;DHT22;37054;52.054;8.600;2023-03-23T11:45:45;17.90;62.30
51029;DHT22;37054;52.054;8.600;2023-03-23T11:48:29;18.10;62.60
51029;DHT22;37054;52.054;8.600;2023-03-23T11:53:53;18.30;62.40
51029;DHT22;37054;52.054;8.600;2023-03-23T11:56:34;18.20;62.20
51029;DHT22;37054;52.054;8.600;2023-03-23T11:59:00;18.30;62.10
51029;DHT22;37054;52.054;8.600;2023-03-23T12:01:35;18.20;61.80
51029;DHT22;37054;52.054;8.600;2023-03-23T12:12:02;17.80;62.80
51029;DHT22;37054;52.054;8.600;2023-03-23T12:17:29;17.80;63.00
51029;DHT22;37054;52.054;8.600;2023-03-23T12:20:14;17.80;62.60
51029;DHT22;37054;52.054;8.600;2023-03-23T12:25:21;17.70;62.50
51029;DHT22;37054;52.054;8.600;2023-03-23T12:30:26;17.60;62.80
51029;DHT22;37054;52.054;8.600;2023-03-23T12:33:09;17.60;63.10
51029;DHT22;37054;52.054;8.600;2023-03-23T12:35:59;17.80;63.60
51029;DHT22;37054;52.054;8.600;2023-03-23T12:43:39;17.80;62.90
51029;DHT22;37054;52.054;8.600;2023-03-23T12:48:41;17.60;63.20
51029;DHT22;37054;52.054;8.600;2023-03-23T12:51:21;17.60;63.60
51029;DHT22;37054;52.054;8.600;2023-03-23T12:58:52;17.80;64.10
51029;DHT22;37054;52.054;8.600;2023-03-23T13:01:25;17.90;64.70
51029;DHT22;37054;52.054;8.600;2023-03-23T13:03:55;18.10;64.40
51029;DHT22;37054;52.054;8.600;2023-03-23T13:11:16;18.80;64.00
51029;DHT22;37054;52.054;8.600;2023-03-23T13:13:55;19.10;63.10
51029;DHT22;37054;52.054;8.600;2023-03-23T13:19:11;19.40;63.00
51029;DHT22;37054;52.054;8.600;2023-03-23T13:24:12;19.50;62.50
51029;DHT22;37054;52.054;8.600;2023-03-23T13:26:39;19.30;62.70
51029;DHT22;37054;52.054;8.600;2023-03-23T13:29:06;19.20;62.50
51029;DHT22;37054;52.054;8.600;2023-03-23T13:31:37;19.20;63.00
51029;DHT22;37054;52.054;8.600;2023-03-23T13:34:21;19.30;63.30
51029;DHT22;37054;52.054;8.600;2023-03-23T13:39:19;19.20;63.70
51029;DHT22;37054;52.054;8.600;2023-03-23T13:41:46;19.10;63.60
51029;DHT22;37054;52.054;8.600;2023-03-23T13:44:21;19.20;64.00
51029;DHT22;37054;52.054;8.600;2023-03-23T13:46:54;19.30;63.60
51029;DHT22;37054;52.054;8.600;2023-03-23T13:49:20;19.30;64.10
51029;DHT22;37054;52.054;8.600;2023-03-23T13:59:58;19.40;63.40
51029;DHT22;37054;52.054;8.600;2023-03-23T14:05:26;19.30;63.00
51029;DHT22;37054;52.054;8.600;2023-03-23T14:07:54;19.40;63.40
51029;DHT22;37054;52.054;8.600;2023-03-23T14:10:20;19.60;63.50
51029;DHT22;37054;52.054;8.600;2023-03-23T14:12:48;19.70;63.60
51029;DHT22;37054;52.054;8.600;2023-03-23T14:15:14;19.70;63.30
51029;DHT22;37054;52.054;8.600;2023-03-23T14:17:41;19.80;63.60
51029;DHT22;37054;52.054;8.600;2023-03-23T14:20:09;19.70;63.50
51029;DHT22;37054;52.054;8.600;2023-03-23T14:22:42;19.60;62.70
51029;DHT22;37054;52.054;8.600;2023-03-23T14:25:13;19.50;62.90
51029;DHT22;37054;52.054;8.600;2023-03-23T14:27:39;19.60;63.30
51029;DHT22;37054;52.054;8.600;2023-03-23T14:30:12;19.60;63.30
51029;DHT22;37054;52.054;8.600;2023-03-23T14:32:38;19.60;63.10
51029;DHT22;37054;52.054;8.600;2023-03-23T14:35:05;19.70;63.40
51029;DHT22;37054;52.054;8.600;2023-03-23T14:37:32;19.70;62.90
51029;DHT22;37054;52.054;8.600;2023-03-23T14:39:58;19.70;63.00
51029;DHT22;37054;52.054;8.600;2023-03-23T14:42:27;19.60;62.70
51029;DHT22;37054;52.054;8.600;2023-03-23T14:44:54;19.50;62.50
51029;DHT22;37054;52.054;8.600;2023-03-23T14:47:21;19.50;62.80
51029;DHT22;37054;52.054;8.600;2023-03-23T14:49:48;19.50;62.70
51029;DHT22;37054;52.054;8.600;2023-03-23T14:52:17;19.60;63.10
51029;DHT22;37054;52.054;8.600;2023-03-23T14:54:43;19.70;63.00
51029;DHT22;37054;52.054;8.600;2023-03-23T14:57:16;19.70;63.00
51029;DHT22;37054;52.054;8.600;2023-03-23T14:59:43;19.70;62.80
51029;DHT22;37054;52.054;8.600;2023-03-23T15:05:01;19.60;62.80
51029;DHT22;37054;52.054;8.600;2023-03-23T15:07:35;19.50;63.20
51029;DHT22;37054;52.054;8.600;2023-03-23T15:10:01;19.30;62.10
51029;DHT22;37054;52.054;8.600;2023-03-23T15:12:28;19.10;62.50
51029;DHT22;37054;52.054;8.600;2023-03-23T15:14:58;19.00;62.50
51029;DHT22;37054;52.054;8.600;2023-03-23T15:17:26;19.00;63.00
51029;DHT22;37054;52.054;8.600;2023-03-23T15:19:52;18.80;62.90
51029;DHT22;37054;52.054;8.600;2023-03-23T15:22:24;18.80;63.40
51029;DHT22;37054;52.054;8.600;2023-03-23T15:25:02;18.80;63.40
51029;DHT22;37054;52.054;8.600;2023-03-23T15:27:29;18.80;63.90
51029;DHT22;37054;52.054;8.600;2023-03-23T15:30:15;18.90;63.90
51029;DHT22;37054;52.054;8.600;2023-03-23T15:32:41;19.00;64.30
51029;DHT22;37054;52.054;8.600;2023-03-23T15:35:17;19.20;64.40
51029;DHT22;37054;52.054;8.600;2023-03-23T15:37:45;19.30;63.60
51029;DHT22;37054;52.054;8.600;2023-03-23T15:43:19;19.50;63.90
51029;DHT22;37054;52.054;8.600;2023-03-23T15:48:32;19.80;64.00
51029;DHT22;37054;52.054;8.600;2023-03-23T15:50:58;19.70;63.10
51029;DHT22;37054;52.054;8.600;2023-03-23T15:53:29;19.80;62.90
51029;DHT22;37054;52.054;8.600;2023-03-23T15:55:55;19.90;62.90
51029;DHT22;37054;52.054;8.600;2023-03-23T15:58:21;19.90;62.70
51029;DHT22;37054;52.054;8.600;2023-03-23T16:00:47;19.90;62.60
51029;DHT22;37054;52.054;8.600;2023-03-23T16:03:18;19.90;62.60
51029;DHT22;37054;52.054;8.600;2023-03-23T16:05:45;19.90;62.90
51029;DHT22;37054;52.054;8.600;2023-03-23T16:08:11;19.90;62.50
51029;DHT22;37054;52.054;8.600;2023-03-23T16:10:37;19.80;62.30
51029;DHT22;37054;52.054;8.600;2023-03-23T16:13:02;19.80;62.10
51029;DHT22;37054;52.054;8.600;2023-03-23T16:15:29;19.90;62.30
51029;DHT22;37054;52.054;8.600;2023-03-23T16:17:57;19.80;62.00
51029;DHT22;37054;52.054;8.600;2023-03-23T16:20:23;19.80;62.40
51029;DHT22;37054;52.054;8.600;2023-03-23T16:22:49;19.80;62.10
51029;DHT22;37054;52.054;8.600;2023-03-23T16:25:15;19.90;62.40
51029;DHT22;37054;52.054;8.600;2023-03-23T16:27:41;19.90;62.80
51029;DHT22;37054;52.054;8.600;2023-03-23T16:30:14;19.90;62.40
51029;DHT22;37054;52.054;8.600;2023-03-23T16:32:40;19.90;62.40
51029;DHT22;37054;52.054;8.600;2023-03-23T16:35:06;19.90;62.50
51029;DHT22;37054;52.054;8.600;2023-03-23T16:37:32;19.80;61.50
51029;DHT22;37054;52.054;8.600;2023-03-23T16:39:59;19.70;61.80
51029;DHT22;37054;52.054;8.600;2023-03-23T16:42:24;19.40;61.60
51029;DHT22;37054;52.054;8.600;2023-03-23T16:44:50;19.30;61.50
51029;DHT22;37054;52.054;8.600;2023-03-23T16:47:23;19.10;61.50
51029;DHT22;37054;52.054;8.600;2023-03-23T16:49:56;19.00;61.80
51029;DHT22;37054;52.054;8.600;2023-03-23T16:52:21;19.00;62.10
51029;DHT22;37054;52.054;8.600;2023-03-23T16:54:47;19.00;62.30
51029;DHT22;37054;52.054;8.600;2023-03-23T16:57:12;18.90;62.20
51029;DHT22;37054;52.054;8.600;2023-03-23T16:59:38;18.70;61.70
51029;DHT22;37054;52.054;8.600;2023-03-23T17:02:08;18.70;61.90
51029;DHT22;37054;52.054;8.600;2023-03-23T17:04:34;18.60;62.10
51029;DHT22;37054;52.054;8.600;2023-03-23T17:07:00;18.50;62.20
51029;DHT22;37054;52.054;8.600;2023-03-23T17:09:27;18.50;62.10
51029;DHT22;37054;52.054;8.600;2023-03-23T17:11:53;18.50;62.40
51029;DHT22;37054;52.054;8.600;2023-03-23T17:14:20;18.50;62.60
51029;DHT22;37054;52.054;8.600;2023-03-23T17:16:45;18.40;63.10
51029;DHT22;37054;52.054;8.600;2023-03-23T17:19:12;18.40;63.00
51029;DHT22;37054;52.054;8.600;2023-03-23T17:21:41;18.40;62.90